Timeline UpdatesTrip UpdatesNews PostsPvt PostsTravel TipsAdmin PostsConv PostsFollowed PostsChat RequestsBlog PostsPNR Posts

Disclaimer
Search
 
 
Fri Apr 18, 2014 16:10:28 ISTHomeTrainsΣChainsAtlasPNRForumGalleryNewsFAQTripsMembersLoginFeedback
No Recent News for this Train
Other Trains in the News **new
Latest...
Will stop at Ramanagaram, according to IRCTC
Tue Mar 11, 2014 (07:35PM)
⇐ Return Journey: Train# 16209

16210/Mysore-Ajmer Express

Mar 11 2014 (10:33AM)
Change Departure Station:
Change Arrival Station:
Post a Train Travel TipPost a Train Travel Tip **new
Post a Comment/Question/Picture/VideoPost a Comment/Question/Picture/Video
Pantry/Catering
✓ Pantry Car Avbl
✓ Catering Avbl
RSA - Rake Sharing
16217/16218 Mysore-Shirdi Express
Rake/Coach Composition
LOCO-SLR-GEN-GEN-A1-A2-B1-B2-S1-S2-S3-PC-S4-S5-S6-S7-S8-S9-S10-S11-S12-S13-GEN-SLR; Total 23 coaches
Loco
UBL WDP-4/4B No Loco Change at Pune / Ahmedabad
News    PNR    Forum    Time-Table    Availability    Fare Chart    Map    Arr/Dep History    Trips    Gallery    ΣChains    X/O    Timeline    
Travel Time: 11h 55m    12 halts    Distance: 630 km    Avg Speed: 52 km/hr
Type: Mail/Express
Zone: SWR/South Western
Departs @ 18:50 (Avg 9m late)
Platform# 3
   W F 
Pune Junction/PUNE 
Arrives @ 06:45 +1 night (Avg 20m late)
Platform# 3
    T S
Ahmedabad Junction/ADI 

12 halts. 125 intermediate Stations between Pune Junction and Ahmedabad Junction

Show ALL intermediate Stations  Show Old Time-Table

#CodeStation NameX/OArrivesAvgDepartsAvgHaltPFDay#KmSpeedElevZoneAddress
1MYSMysore Junction (6)  -18:00+051-1165.954760mSWRTel No 0821-2521751.URL: www.mysorerailwaystation.in, Karnataka
2MYAMandya (3)  18:49+2118:50+221m--1-1121.653672mSWRMandya, Karnataka
3RMGMRamanagaram (4)X  19:45+019:46+01m21-1073.124692mSWRRamanagaram, Karnataka
4SBCBangalore City Junction (10)O  21:35-121:55+220m81-1028.734903mSWRBengaluru-560023, Karnataka
5YPRYesvantpur Junction (6)  22:05+422:07+42m--1-1023.169919mSWRTel:080-23371444, Karnataka
6TKTumkur (3)  23:03+623:05+62m--1-959.171823mSWRTumkur, Karnataka
7TTRTiptur (4)  00:05+1100:06+121m22-888.139860mSWRTiptur, Karnataka
8ASKArsikere Junction (3)  00:45+200:50+75m--2-862.656816mSWRArsikere, Karnataka
9RRBBirur Junction (3)  01:38+201:40+42m--2-817.664802mSWRBirur, Karnataka
10DVGDavangere (2)  03:27+2503:30+253m--2-702.643598mSWRDavanagere, Karnataka
11HRRHarihar (3)  03:48+2503:50+262m--2-689.858553mSWRHarihar, Karnataka
12RNRRanibennur (3)  04:14+2904:15+301m--2-666.567583mSWRRanebennur, Karnataka
13HVRHaveri (3)  04:44+3004:45+311m--2-633.945558mSWRHaveri, Karnataka
14UBLHubli Junction (5)  06:25+1206:35+2310m12-558.852640mSWRHubli - 580020, Karnataka
15DWRDharwad (4)  06:58+2907:00+282m12-538.851737mSWRDharwad 580001, Karnataka
16LDLonda Junction (4)  08:23+1908:25+202m22-468.344643mSWRLonda, Karnataka
17BGMBelgaum (3)X  09:35+2009:40+235m12-417.046752mSWRBelgaum 590001, Karnataka
18MRJMiraj Junction (6)  12:40+312:45+145m12-279.637554mCRMiraj 416410, Maharashtra
19SLISangli (3)  12:57+1713:00+183m12-272.369559mCRSangli, Maharashtra
20KRDKarad (3)  13:59+2314:00+251m12-204.359597mCRDist- Satara., Maharashtra
21STRSatara (3)  15:00+2715:03+283m12-145.740637mCRSatara, Maharashtra
22PUNE»Pune Junction (6)»  18:40+318:50+910m320.055556mCRPune 411001, Maharashtra
23LNLLonavala (3)  19:59+320:00+61m2263.635623mCRLonavala 410401, Maharashtra
24KJTKarjat Junction (4)X  20:49+720:50+91m2292.35657mCRKarjat, Maharashtra
25KYNKalyan Junction (8)  21:40+721:45+55m72139.14510mCRKalyan 421301, Maharashtra
26BIRDBhiwandi Road (4)  22:09+722:10+81m42157.14126mCRBhiwandi, Maharashtra
27BSRVasai Road (7)  22:50+422:55+55m62184.4647mWRThane-401202, Maharashtra
28VAPIVapi (3)X  00:49+1200:50+131m--3305.56327mWRVapi, Gujarat
29BLValsad (3)  01:15+801:16+121m23331.74615mWRValsad, Gujarat
30STSurat (4)  02:45+102:55+110m13400.47919mWRSurat 395001, Gujarat
31BHBharuch Junction (5)  03:40+303:41+41m33459.77419mWRBharuch, Gujarat
32BRCVadodara Junction (7)  04:38+804:55+617m23530.26536mWRVadodara, Gujarat
33ANNDAnand Junction (6)  05:28+605:29+61m--3566.06944mWRAnand, Gujarat
34NDNadiad Junction (4)X  05:45+1705:46+171m--3584.54637mWRNadiad, Gujarat
35ADI•Ahmedabad Junction (12)•  06:45+2007:05+2120m33630.03351mWRAhmedabad, Gujarat
36MSHMahesana Junction (6)  09:19+609:20+91m23703.05095mWRMehsana, Gujarat
37PNUPalanpur Junction (5)  10:38+610:40+122m13768.049216mWRPalanpur, Gujarat
38ABRAbu Road (3)XO  11:45+1511:55+1910m23820.666264mNWRSirohi Dist, Rajasthan
39SOHSirohi Road (2)  12:35+2212:36+231m--3864.565369mNWRPindwara, Rajasthan
40FAFalna (2)  13:27+2513:28+271m13919.564282mNWRFalna, Rajasthan
41MJMarwar Junction (4)  14:30+2514:32+262m--3986.066267mNWRMarwar Junction, Rajasthan
42SODSojat Road (2)  14:51+2914:52+311m--31006.945295mNWRSojat Road, Rajasthan
43BERBeawar (2)X  16:20+1516:21+161m--31073.445447mNWRBeawar, Rajasthan
44AIIAjmer Junction (5)  17:30+3-331125.6-464mNWRPin: 305001, Rajasthan
Scroll to Top
Scroll to Bottom